Time;durP1;ratioP1;P1;durP2;ratioP2;P2;SDS_P1;SDS_P2;PMS_P1;PMS_P2;Temp;Humidity;BMP_temperature;BMP_pressure;BME280_temperature;BME280_humidity;BME280_pressure;Samples;Min_cycle;Max_cycle;Signal;HPM_P1;HPM_P2
2024/01/17 00:01:29;;;;;;;24.70;16.73;;;-3276.00;88.90;;;;;;5036009;28;20056;-76
2024/01/17 00:20:57;;;;;;;20.90;14.32;;;-3276.00;88.80;;;;;;5031547;28;20040;-77
2024/01/17 00:23:23;;;;;;;23.02;14.13;;;-3276.00;88.80;;;;;;5027769;28;20033;-76
2024/01/17 00:25:48;;;;;;;21.80;14.45;;;-3276.00;88.80;;;;;;5035248;28;20477;-77
2024/01/17 00:28:14;;;;;;;23.23;13.45;;;-3276.00;88.70;;;;;;5027922;28;20501;-75
2024/01/17 00:30:39;;;;;;;20.83;13.40;;;-3276.00;88.70;;;;;;5034965;28;20040;-77
2024/01/17 00:33:05;;;;;;;22.50;13.98;;;-3276.10;88.60;;;;;;5030662;28;20040;-75
2024/01/17 00:35:31;;;;;;;20.45;13.75;;;-3276.10;88.40;;;;;;5031820;28;20053;-76
2024/01/17 00:37:56;;;;;;;23.65;13.98;;;-3276.10;88.50;;;;;;5030700;28;21324;-77
2024/01/17 00:40:22;;;;;;;22.02;13.52;;;-3276.10;88.50;;;;;;5038748;28;20441;-76
2024/01/17 00:42:48;;;;;;;18.67;13.40;;;-3276.10;88.20;;;;;;5031593;28;20391;-75
2024/01/17 00:45:14;;;;;;;20.52;13.77;;;-3276.10;88.20;;;;;;5034446;28;20315;-75
2024/01/17 00:47:40;;;;;;;19.35;13.30;;;-3276.10;88.20;;;;;;5028251;28;20048;-76
2024/01/17 00:50:06;;;;;;;25.50;14.30;;;-3276.20;88.10;;;;;;5025708;28;20488;-78
2024/01/17 00:52:31;;;;;;;20.40;13.13;;;-3276.20;88.00;;;;;;5034148;28;20468;-77
2024/01/17 00:54:58;;;;;;;22.42;13.95;;;-3276.20;87.90;;;;;;5027079;28;20053;-75
2024/01/17 00:57:24;;;;;;;23.33;14.00;;;-3276.10;87.90;;;;;;5027827;28;20029;-77
2024/01/17 00:59:49;;;;;;;21.17;13.60;;;-3276.10;87.90;;;;;;5031333;28;20020;-76
2024/01/17 01:02:15;;;;;;;20.92;13.60;;;-3276.10;87.90;;;;;;5034300;28;20155;-75
2024/01/17 01:04:40;;;;;;;20.48;13.20;;;-3276.10;87.90;;;;;;5037262;28;20070;-75
2024/01/17 01:07:06;;;;;;;19.48;13.23;;;-3276.10;87.80;;;;;;5027908;28;20369;-75
2024/01/17 01:09:32;;;;;;;24.02;14.00;;;-3276.10;87.70;;;;;;5031263;28;20036;-78
2024/01/17 01:11:57;;;;;;;28.05;14.82;;;-3276.10;87.70;;;;;;5031008;28;20196;-76
2024/01/17 01:14:23;;;;;;;26.33;15.60;;;-3276.10;87.60;;;;;;5039407;28;20048;-76
2024/01/17 01:16:49;;;;;;;28.08;15.30;;;-3276.10;87.60;;;;;;5040849;28;20029;-76
2024/01/17 01:19:15;;;;;;;23.35;14.43;;;-3276.10;87.50;;;;;;5039130;28;20474;-76
2024/01/17 01:21:42;;;;;;;19.35;12.85;;;-3276.10;87.50;;;;;;5052415;28;20025;-76
2024/01/17 01:24:08;;;;;;;24.17;13.18;;;-3276.10;87.50;;;;;;5037613;28;20029;-75
2024/01/17 01:26:35;;;;;;;19.40;13.75;;;-3276.10;87.50;;;;;;5039303;28;20481;-78
2024/01/17 01:29:01;;;;;;;20.55;13.32;;;-3276.00;87.40;;;;;;5043076;28;20033;-77
2024/01/17 01:31:27;;;;;;;19.63;12.57;;;-3276.00;87.50;;;;;;5033631;28;20036;-77
2024/01/17 01:33:52;;;;;;;21.05;12.43;;;-3276.10;87.60;;;;;;5035394;28;20053;-74
2024/01/17 01:36:19;;;;;;;20.10;12.25;;;-3276.10;87.50;;;;;;5042873;28;20024;-77
2024/01/17 01:38:44;;;;;;;20.77;13.02;;;-3276.00;87.50;;;;;;5033766;28;20159;-75
2024/01/17 01:41:10;;;;;;;20.13;13.10;;;-3276.10;87.40;;;;;;5031743;28;20054;-75
2024/01/17 01:43:36;;;;;;;19.30;11.35;;;-3276.10;87.30;;;;;;5036918;28;20487;-75
2024/01/17 01:46:20;;;;;;;22.33;12.40;;;-3276.10;87.30;;;;;;5035419;28;20016;-75
2024/01/17 01:48:47;;;;;;;19.52;13.50;;;-3276.10;87.10;;;;;;5039279;28;20138;-76
2024/01/17 01:51:13;;;;;;;18.90;12.65;;;-3276.10;87.10;;;;;;5039297;28;20055;-75
2024/01/17 01:53:42;;;;;;;22.30;14.75;;;-3276.10;87.10;;;;;;5029724;28;20033;-78
2024/01/17 01:56:10;;;;;;;18.40;13.43;;;-3276.10;87.00;;;;;;5035411;28;20036;-77
2024/01/17 01:58:36;;;;;;;22.17;13.63;;;-3276.00;87.10;;;;;;5045675;28;20056;-76
2024/01/17 02:01:03;;;;;;;23.00;13.77;;;-3276.10;87.20;;;;;;5038532;28;20087;-78
2024/01/17 02:03:29;;;;;;;21.40;13.30;;;-3276.00;87.10;;;;;;5042676;28;20050;-77
2024/01/17 02:05:56;;;;;;;20.40;13.02;;;-3276.00;87.10;;;;;;5038492;28;20090;-75
2024/01/17 02:08:21;;;;;;;19.05;12.52;;;-3276.00;87.10;;;;;;5029650;28;20036;-77
2024/01/17 02:10:47;;;;;;;21.85;13.35;;;-3276.00;87.10;;;;;;5037888;28;20046;-75
2024/01/17 02:13:14;;;;;;;20.42;12.18;;;-3276.00;87.00;;;;;;5033677;28;20471;-78
2024/01/17 02:15:40;;;;;;;19.20;13.10;;;-3276.00;87.20;;;;;;5038095;28;20017;-77
2024/01/17 02:18:05;;;;;;;20.15;12.93;;;-3276.00;87.10;;;;;;5035890;28;20090;-75
2024/01/17 02:20:31;;;;;;;18.58;11.63;;;-3276.00;87.00;;;;;;5051747;28;20128;-78
2024/01/17 02:22:57;;;;;;;20.77;12.57;;;-3276.00;87.00;;;;;;5037994;28;20039;-75
2024/01/17 02:25:23;;;;;;;18.00;12.27;;;-3276.00;87.00;;;;;;5041790;28;20418;-74
2024/01/17 02:27:48;;;;;;;25.70;14.02;;;-3276.00;87.00;;;;;;5032191;28;20045;-77
2024/01/17 02:30:15;;;;;;;18.55;12.75;;;-3276.00;87.00;;;;;;5032509;28;20021;-74
2024/01/17 02:32:42;;;;;;;21.38;13.77;;;-3276.00;87.00;;;;;;5029751;28;20032;-77
2024/01/17 02:35:09;;;;;;;17.75;12.40;;;-3276.00;87.10;;;;;;5041809;28;20024;-78
2024/01/17 02:37:34;;;;;;;20.67;14.25;;;-3276.00;87.00;;;;;;5033728;28;20158;-77
2024/01/17 02:40:00;;;;;;;22.70;12.23;;;-3276.00;87.10;;;;;;5028657;28;20072;-76
2024/01/17 02:42:26;;;;;;;22.45;12.85;;;-3276.00;87.20;;;;;;5034595;28;20064;-77
2024/01/17 02:44:51;;;;;;;21.08;12.60;;;-3276.00;87.10;;;;;;5032207;28;20052;-77
2024/01/17 02:47:17;;;;;;;20.80;12.40;;;-3276.00;87.10;;;;;;5034530;28;20025;-76
2024/01/17 02:49:42;;;;;;;19.88;12.10;;;-3276.00;87.10;;;;;;5029737;28;20119;-77
2024/01/17 02:52:08;;;;;;;22.13;12.20;;;-3276.00;87.20;;;;;;5032124;28;20106;-78
2024/01/17 02:54:34;;;;;;;17.08;11.93;;;-3276.00;87.20;;;;;;5031205;28;20032;-78
2024/01/17 02:56:59;;;;;;;21.17;11.75;;;-3276.00;87.20;;;;;;5032265;28;20041;-75
2024/01/17 02:59:25;;;;;;;17.05;11.07;;;-3276.00;87.20;;;;;;5031801;28;20365;-77
2024/01/17 03:01:53;;;;;;;16.60;11.23;;;-3276.00;87.10;;;;;;5031407;28;20148;-77
2024/01/17 03:04:19;;;;;;;19.33;12.70;;;-3276.00;87.20;;;;;;5034051;28;20040;-77
2024/01/17 03:06:46;;;;;;;16.63;10.77;;;-3276.00;87.10;;;;;;5045445;28;20107;-76
2024/01/17 03:09:12;;;;;;;16.52;11.23;;;-3276.00;87.10;;;;;;5036481;28;20358;-75
2024/01/17 03:11:37;;;;;;;18.15;11.18;;;-3276.00;87.20;;;;;;5041595;28;20027;-76
2024/01/17 03:14:03;;;;;;;21.58;12.70;;;-3276.00;87.20;;;;;;5034403;28;20034;-78
2024/01/17 03:16:29;;;;;;;21.73;11.82;;;-3276.00;87.20;;;;;;5033801;28;20029;-76
2024/01/17 03:18:55;;;;;;;17.27;10.70;;;-3276.00;87.10;;;;;;5053752;28;20401;-76
2024/01/17 03:21:21;;;;;;;16.73;10.90;;;-3276.00;87.10;;;;;;5040746;28;20527;-75
2024/01/17 03:23:47;;;;;;;18.30;10.60;;;-3276.00;87.00;;;;;;5032721;28;20110;-75
2024/01/17 03:26:12;;;;;;;18.27;9.98;;;-3276.00;87.00;;;;;;5033880;28;20513;-77
2024/01/17 03:28:38;;;;;;;15.88;10.27;;;-3276.00;86.90;;;;;;5037446;28;20496;-74
2024/01/17 03:31:04;;;;;;;18.02;9.40;;;-3276.00;86.90;;;;;;5038211;28;20032;-75
2024/01/17 03:33:29;;;;;;;17.33;9.98;;;-3276.00;86.80;;;;;;5036247;28;20074;-75
2024/01/17 03:35:55;;;;;;;16.10;9.50;;;-3275.90;86.90;;;;;;5030732;28;20025;-75
2024/01/17 03:38:21;;;;;;;15.82;10.10;;;-3275.90;86.90;;;;;;5032856;28;20466;-76
2024/01/17 03:40:47;;;;;;;14.93;9.80;;;-3275.90;86.80;;;;;;5026192;28;20124;-79
2024/01/17 03:43:12;;;;;;;14.43;9.80;;;-3275.90;86.80;;;;;;5032834;28;20109;-77
2024/01/17 03:45:38;;;;;;;17.08;9.75;;;-3275.80;86.80;;;;;;5034242;28;20397;-75
2024/01/17 03:48:06;;;;;;;16.23;10.48;;;-3275.80;86.90;;;;;;5031024;28;20068;-76
2024/01/17 03:50:32;;;;;;;15.05;10.40;;;-3275.80;87.00;;;;;;5031523;28;20040;-77
2024/01/17 03:52:59;;;;;;;19.55;10.10;;;-3275.80;87.10;;;;;;5026429;28;20025;-77
2024/01/17 03:55:24;;;;;;;16.02;9.82;;;-3275.70;87.10;;;;;;5031467;28;20025;-77
2024/01/17 03:57:50;;;;;;;15.95;9.82;;;-3275.80;87.30;;;;;;5035917;28;20104;-76
2024/01/17 04:00:16;;;;;;;15.57;9.70;;;-3275.80;87.30;;;;;;5036544;28;20458;-76
2024/01/17 04:02:42;;;;;;;14.82;9.85;;;-3275.80;87.40;;;;;;5042759;28;20033;-76
2024/01/17 04:05:07;;;;;;;15.63;9.25;;;-3275.80;87.50;;;;;;5035225;28;20024;-79
2024/01/17 04:07:33;;;;;;;16.45;10.45;;;-3275.80;87.50;;;;;;5030002;28;20044;-76
2024/01/17 04:09:58;;;;;;;24.27;10.75;;;-3275.80;87.50;;;;;;5032990;28;20075;-76
2024/01/17 04:12:24;;;;;;;26.13;10.18;;;-3275.80;87.50;;;;;;5028698;28;20425;-79
2024/01/17 04:14:50;;;;;;;21.75;10.35;;;-3275.80;87.40;;;;;;5029838;28;20390;-77
2024/01/17 04:17:16;;;;;;;18.75;10.52;;;-3275.80;87.40;;;;;;5030724;28;20079;-79
2024/01/17 04:19:41;;;;;;;18.00;10.63;;;-3275.80;87.40;;;;;;5024644;28;20033;-77
2024/01/17 04:22:07;;;;;;;15.68;10.15;;;-3275.80;87.40;;;;;;5033510;28;20030;-77
2024/01/17 04:24:33;;;;;;;16.02;10.35;;;-3275.80;87.10;;;;;;5026976;28;20087;-79
2024/01/17 04:26:58;;;;;;;17.27;9.35;;;-3275.80;87.10;;;;;;5036840;28;20024;-77
2024/01/17 04:29:24;;;;;;;14.60;9.38;;;-3275.80;87.10;;;;;;5030206;28;20143;-78
2024/01/17 04:31:50;;;;;;;15.90;9.30;;;-3275.80;87.10;;;;;;5033691;28;20097;-76
2024/01/17 04:34:16;;;;;;;16.63;9.80;;;-3275.80;87.30;;;;;;5024954;28;20044;-77
2024/01/17 04:36:41;;;;;;;16.85;10.05;;;-3275.80;87.30;;;;;;5025825;28;20032;-79
2024/01/17 04:39:08;;;;;;;18.00;10.05;;;-3275.80;87.40;;;;;;5031437;28;20548;-76
2024/01/17 04:41:34;;;;;;;16.88;9.57;;;-3275.90;87.20;;;;;;5032140;28;20021;-78
2024/01/17 04:44:00;;;;;;;14.70;10.05;;;-3275.90;87.30;;;;;;5031554;28;20080;-78
2024/01/17 04:46:27;;;;;;;18.88;10.27;;;-3275.90;87.30;;;;;;5031578;28;20139;-77
2024/01/17 04:48:53;;;;;;;14.43;9.15;;;-3275.90;87.30;;;;;;5024131;28;20029;-77
2024/01/17 04:51:22;;;;;;;17.23;10.07;;;-3276.00;87.40;;;;;;5037143;28;20103;-76
2024/01/17 04:53:48;;;;;;;17.75;10.60;;;-3275.90;87.20;;;;;;5030300;28;20972;-78
2024/01/17 04:56:15;;;;;;;18.63;9.70;;;-3276.00;87.10;;;;;;5032954;28;20458;-78
2024/01/17 04:58:43;;;;;;;17.98;10.98;;;-3276.00;87.00;;;;;;5033273;28;20029;-77
2024/01/17 05:01:09;;;;;;;15.95;9.40;;;-3275.90;87.00;;;;;;5031825;28;20090;-77
2024/01/17 05:03:35;;;;;;;20.48;10.63;;;-3276.00;87.00;;;;;;5034086;28;20127;-77
2024/01/17 05:06:01;;;;;;;17.25;10.13;;;-3276.00;86.80;;;;;;5030468;28;20124;-77
2024/01/17 05:08:27;;;;;;;15.48;9.88;;;-3276.00;86.90;;;;;;5024728;28;20132;-80
2024/01/17 05:10:53;;;;;;;18.63;11.02;;;-3276.00;86.80;;;;;;5040172;28;20120;-79
2024/01/17 05:13:19;;;;;;;16.40;9.68;;;-3276.00;86.90;;;;;;5030416;28;20033;-77
2024/01/17 05:15:44;;;;;;;16.30;9.95;;;-3276.10;86.90;;;;;;5033195;28;20017;-76
2024/01/17 05:18:10;;;;;;;16.30;9.77;;;-3276.10;86.80;;;;;;5032840;28;20034;-77
2024/01/17 05:20:36;;;;;;;17.77;10.50;;;-3276.10;86.80;;;;;;5032347;28;20029;-78
2024/01/17 05:23:02;;;;;;;16.90;10.68;;;-3276.10;86.80;;;;;;5033645;28;20033;-78
2024/01/17 05:25:27;;;;;;;19.88;10.45;;;-3276.10;86.80;;;;;;5036601;28;20723;-78
2024/01/17 05:27:53;;;;;;;17.75;9.70;;;-3276.10;86.80;;;;;;5027017;28;20588;-76
2024/01/17 05:30:20;;;;;;;16.27;11.30;;;-3276.10;86.80;;;;;;5035267;28;20029;-79
2024/01/17 05:32:46;;;;;;;19.30;11.32;;;-3276.10;86.80;;;;;;5030499;28;20044;-76
2024/01/17 05:35:12;;;;;;;23.90;12.60;;;-3276.20;86.80;;;;;;5025659;28;20485;-77
2024/01/17 05:37:40;;;;;;;21.50;12.10;;;-3276.20;86.80;;;;;;5027519;28;20017;-76
2024/01/17 05:40:10;;;;;;;18.88;11.73;;;-3276.20;86.80;;;;;;5028937;28;20017;-79
2024/01/17 05:42:37;;;;;;;20.60;11.05;;;-3276.20;86.70;;;;;;5034381;28;20036;-76
2024/01/17 05:45:03;;;;;;;20.23;12.00;;;-3276.20;86.70;;;;;;5036271;28;20025;-78
2024/01/17 05:47:30;;;;;;;21.67;11.55;;;-3276.20;86.70;;;;;;5029694;28;20013;-76
2024/01/17 05:49:56;;;;;;;21.08;11.35;;;-3276.20;86.60;;;;;;5028635;28;20309;-74
2024/01/17 05:52:23;;;;;;;19.35;11.20;;;-3276.30;86.50;;;;;;5029789;28;20083;-78
2024/01/17 05:54:48;;;;;;;17.58;10.23;;;-3276.20;86.50;;;;;;5035201;28;20148;-76
2024/01/17 05:57:14;;;;;;;19.45;11.23;;;-3276.20;86.30;;;;;;5029939;28;20017;-76
2024/01/17 05:59:40;;;;;;;18.75;11.75;;;-3276.20;86.30;;;;;;5038414;28;20048;-78
2024/01/17 06:02:05;;;;;;;18.85;11.48;;;-3276.20;86.30;;;;;;5036593;28;20021;-75
2024/01/17 06:04:33;;;;;;;18.73;11.40;;;-3276.20;86.30;;;;;;5036090;28;20068;-79
2024/01/17 06:07:01;;;;;;;21.02;11.15;;;-3276.20;86.30;;;;;;5035667;28;20090;-76
2024/01/17 06:09:28;;;;;;;17.10;11.90;;;-3276.30;86.30;;;;;;5034105;28;20108;-75
2024/01/17 06:11:53;;;;;;;20.25;11.30;;;-3276.30;86.30;;;;;;5033901;28;20108;-77
2024/01/17 06:14:19;;;;;;;20.75;11.80;;;-3276.30;86.30;;;;;;5042229;28;20116;-79
2024/01/17 06:16:46;;;;;;;19.65;12.20;;;-3276.30;86.30;;;;;;5054987;28;20160;-76
2024/01/17 06:19:12;;;;;;;21.10;12.70;;;-3276.30;86.40;;;;;;5030307;28;20722;-78
2024/01/17 06:21:37;;;;;;;20.80;12.50;;;-3276.30;86.50;;;;;;5036123;28;20032;-79
2024/01/17 06:24:03;;;;;;;22.45;13.15;;;-3276.30;86.50;;;;;;5029386;28;20048;-79
2024/01/17 06:26:29;;;;;;;20.67;12.38;;;-3276.30;86.40;;;;;;5037515;28;20528;-78
2024/01/17 06:28:54;;;;;;;21.35;12.30;;;-3276.30;86.50;;;;;;5021350;28;20412;-77
2024/01/17 06:31:25;;;;;;;21.45;12.63;;;-3276.30;86.60;;;;;;5036305;28;20017;-76
2024/01/17 06:33:53;;;;;;;21.67;14.05;;;-3276.30;86.60;;;;;;5036231;28;20049;-75
2024/01/17 06:36:18;;;;;;;22.40;13.38;;;-3276.30;86.50;;;;;;5049222;28;20020;-78
2024/01/17 06:38:44;;;;;;;25.90;13.63;;;-3276.30;86.30;;;;;;5028776;28;20092;-78
2024/01/17 06:41:10;;;;;;;22.70;12.98;;;-3276.30;86.20;;;;;;5031985;28;20029;-76
2024/01/17 06:43:36;;;;;;;22.92;12.77;;;-3276.30;86.40;;;;;;5043037;28;20048;-75
2024/01/17 06:46:03;;;;;;;26.08;15.05;;;-3276.30;86.50;;;;;;5040433;28;20490;-77
2024/01/17 06:48:30;;;;;;;24.25;14.73;;;-3276.30;86.50;;;;;;5048222;28;20562;-75
2024/01/17 06:50:56;;;;;;;21.90;14.55;;;-3276.20;86.30;;;;;;5037631;28;20098;-76
2024/01/17 06:53:22;;;;;;;22.73;14.65;;;-3276.20;86.70;;;;;;5031773;28;20427;-77
2024/01/17 06:55:48;;;;;;;24.15;14.82;;;-3276.10;86.90;;;;;;5036030;28;20021;-75
2024/01/17 06:58:14;;;;;;;26.60;17.50;;;-3276.00;87.30;;;;;;5031508;28;20041;-77
2024/01/17 07:00:41;;;;;;;23.08;15.52;;;-3276.10;87.40;;;;;;5032722;28;20033;-78
2024/01/17 07:03:07;;;;;;;25.70;15.32;;;-3276.00;87.50;;;;;;5033897;28;21029;-76
2024/01/17 07:05:32;;;;;;;26.48;15.80;;;-3276.10;87.60;;;;;;5032962;28;20507;-79
2024/01/17 07:07:58;;;;;;;27.75;16.10;;;-3276.10;87.70;;;;;;5031765;28;20324;-76
2024/01/17 07:10:24;;;;;;;24.40;15.20;;;-3276.20;87.80;;;;;;5033825;28;20025;-77
2024/01/17 07:12:52;;;;;;;26.40;15.57;;;-3276.20;87.60;;;;;;5035284;28;20061;-78
2024/01/17 07:15:18;;;;;;;25.17;15.45;;;-3276.10;87.60;;;;;;5032483;28;20407;-72
2024/01/17 07:17:44;;;;;;;27.40;16.15;;;-3276.10;87.80;;;;;;5033885;28;20044;-74
2024/01/17 07:20:10;;;;;;;24.17;14.13;;;-3276.10;87.80;;;;;;5035257;28;20025;-72
2024/01/17 07:22:42;;;;;;;25.92;14.55;;;-3276.20;87.80;;;;;;5051838;28;20025;-73
2024/01/17 07:25:10;;;;;;;24.42;14.65;;;-3276.20;87.80;;;;;;5033929;28;20041;-71
2024/01/17 07:27:39;;;;;;;24.42;14.80;;;-3276.30;87.70;;;;;;5034515;28;20034;-72
2024/01/17 07:30:05;;;;;;;25.13;14.80;;;-3276.30;87.70;;;;;;5038197;28;20051;-71
2024/01/17 07:32:31;;;;;;;35.17;19.45;;;-3276.30;87.70;;;;;;5028476;28;20533;-71
2024/01/17 07:34:57;;;;;;;27.50;14.73;;;-3276.30;87.50;;;;;;5028636;28;20136;-72
2024/01/17 07:37:22;;;;;;;25.73;14.23;;;-3276.30;87.60;;;;;;5033502;28;20033;-72
2024/01/17 07:39:48;;;;;;;28.83;14.75;;;-3276.20;87.40;;;;;;5032201;28;20477;-73
2024/01/17 07:42:14;;;;;;;25.45;14.02;;;-3276.20;87.20;;;;;;5036845;28;20044;-72
2024/01/17 07:44:40;;;;;;;23.95;14.82;;;-3276.10;87.30;;;;;;5034533;28;20324;-75
2024/01/17 07:47:06;;;;;;;27.48;14.75;;;-3276.00;87.30;;;;;;5036688;28;20025;-72
2024/01/17 07:49:37;;;;;;;24.88;14.52;;;-3276.00;87.60;;;;;;5037313;28;20126;-73
2024/01/17 07:52:04;;;;;;;27.55;17.38;;;-3276.10;87.60;;;;;;5035390;28;20124;-72
2024/01/17 07:54:31;;;;;;;26.08;15.55;;;-3276.00;87.60;;;;;;5033819;28;20091;-73
2024/01/17 07:56:56;;;;;;;27.88;15.70;;;-3275.90;87.90;;;;;;5035133;28;20055;-73
2024/01/17 07:59:22;;;;;;;23.80;14.13;;;-3275.90;88.10;;;;;;5032999;28;20389;-72
2024/01/17 08:01:49;;;;;;;28.30;16.13;;;-3275.90;88.30;;;;;;5035307;28;20052;-72
2024/01/17 08:04:16;;;;;;;23.00;14.55;;;-3276.00;88.30;;;;;;5036415;28;20373;-71
2024/01/17 08:06:43;;;;;;;27.40;16.23;;;-3276.00;88.30;;;;;;5034967;28;20378;-72
2024/01/17 08:09:20;;;;;;;28.10;16.58;;;-3276.00;88.20;;;;;;5032604;28;20576;-73
2024/01/17 08:11:56;;;;;;;28.80;17.15;;;-3276.10;88.00;;;;;;5036550;28;20032;-72
2024/01/17 08:14:22;;;;;;;24.42;14.88;;;-3276.20;87.90;;;;;;5033830;28;20037;-71
2024/01/17 08:16:50;;;;;;;24.83;14.73;;;-3276.20;87.80;;;;;;5036006;28;20033;-73
2024/01/17 08:19:17;;;;;;;25.60;14.00;;;-3276.30;87.80;;;;;;5028499;28;20033;-71
2024/01/17 08:21:46;;;;;;;25.80;14.02;;;-3276.30;87.70;;;;;;5032994;28;20489;-73
2024/01/17 08:24:15;;;;;;;25.23;13.98;;;-3276.30;87.50;;;;;;5035955;28;20099;-73
2024/01/17 08:26:41;;;;;;;25.02;12.65;;;-3276.40;87.50;;;;;;5040223;28;20105;-73
2024/01/17 08:29:08;;;;;;;21.83;12.98;;;-3276.50;87.50;;;;;;5035090;28;20030;-72
2024/01/17 08:31:34;;;;;;;21.30;13.38;;;-3276.50;87.20;;;;;;5029925;28;20040;-72
2024/01/17 08:34:00;;;;;;;22.33;12.90;;;-3276.50;87.20;;;;;;5037036;28;20056;-73
2024/01/17 08:36:30;;;;;;;23.65;13.52;;;-3276.60;87.10;;;;;;5037041;28;20658;-71
2024/01/17 08:39:00;;;;;;;22.98;12.82;;;-3276.60;87.00;;;;;;5034473;28;20048;-72
2024/01/17 08:41:25;;;;;;;21.35;13.73;;;-3276.60;86.70;;;;;;5035362;28;20043;-72
2024/01/17 08:43:51;;;;;;;23.13;13.32;;;-3276.60;86.70;;;;;;5032227;28;20358;-72
2024/01/17 08:46:17;;;;;;;21.88;12.80;;;-3276.60;86.40;;;;;;5034929;28;20026;-70
2024/01/17 08:48:43;;;;;;;19.63;12.60;;;-3276.60;86.40;;;;;;5031201;28;20418;-72
2024/01/17 08:51:09;;;;;;;20.25;12.63;;;-3276.60;86.50;;;;;;5033717;28;20043;-72
2024/01/17 08:53:35;;;;;;;18.00;11.85;;;-3276.60;86.60;;;;;;5030845;28;20025;-71
2024/01/17 08:56:04;;;;;;;21.58;13.07;;;-3276.70;86.70;;;;;;5031706;28;20018;-71
2024/01/17 08:58:33;;;;;;;21.60;12.90;;;-3276.70;86.40;;;;;;5029892;28;20033;-70
2024/01/17 09:01:01;;;;;;;24.67;12.25;;;-3276.70;86.20;;;;;;5033825;28;20039;-71
2024/01/17 09:03:29;;;;;;;25.45;15.43;;;-3276.70;86.20;;;;;;5029668;28;20045;-70
2024/01/17 09:05:55;;;;;;;28.67;16.73;;;-3276.70;86.10;;;;;;5034310;28;20052;-72
2024/01/17 09:08:20;;;;;;;28.75;15.73;;;-3276.60;86.10;;;;;;5032591;28;20041;-71
2024/01/17 09:10:46;;;;;;;23.60;13.02;;;-3276.50;86.50;;;;;;5034747;28;20027;-71
2024/01/17 09:13:13;;;;;;;23.58;13.90;;;-3276.50;86.50;;;;;;5033833;28;20407;-71
2024/01/17 09:15:40;;;;;;;24.92;14.68;;;-3276.50;86.70;;;;;;5033967;28;20478;-72
2024/01/17 09:18:06;;;;;;;25.20;15.55;;;-3276.60;86.80;;;;;;5035228;28;20132;-70
2024/01/17 09:20:32;;;;;;;23.98;14.60;;;-3276.60;86.60;;;;;;5034507;28;20037;-71
2024/01/17 09:22:58;;;;;;;25.27;14.48;;;-3276.60;86.60;;;;;;5035108;28;20041;-71
2024/01/17 09:25:24;;;;;;;27.65;15.10;;;-3276.60;86.70;;;;;;5033329;28;20036;-71
2024/01/17 09:27:50;;;;;;;20.05;12.40;;;-3276.60;86.70;;;;;;5028741;28;20041;-70
2024/01/17 09:30:15;;;;;;;22.33;14.27;;;-3276.70;86.80;;;;;;5029882;28;20156;-70
2024/01/17 09:32:44;;;;;;;27.45;14.00;;;-3276.70;86.60;;;;;;5035739;28;20477;-70
2024/01/17 09:35:10;;;;;;;22.58;14.95;;;0.00;86.70;;;;;;5038097;28;20560;-71
2024/01/17 09:37:36;;;;;;;25.42;13.63;;;0.00;86.50;;;;;;5035651;28;20112;-72
2024/01/17 09:40:05;;;;;;;20.52;13.73;;;0.00;86.30;;;;;;5044572;28;20103;-71
2024/01/17 09:42:32;;;;;;;23.83;13.43;;;0.00;86.40;;;;;;5038664;28;20090;-72
2024/01/17 09:44:59;;;;;;;21.13;13.40;;;0.00;86.40;;;;;;5055840;28;20115;-74
2024/01/17 09:47:26;;;;;;;21.17;13.93;;;0.00;86.40;;;;;;5031668;28;20029;-74
2024/01/17 09:49:52;;;;;;;23.23;14.25;;;0.10;86.30;;;;;;5035444;28;20458;-71
2024/01/17 09:52:22;;;;;;;21.98;13.82;;;0.00;86.20;;;;;;5036906;28;20043;-71
2024/01/17 09:54:50;;;;;;;23.25;14.32;;;0.00;85.90;;;;;;5038976;28;20037;-72
2024/01/17 09:57:25;;;;;;;22.20;13.57;;;0.00;86.00;;;;;;5042809;28;20029;-74
2024/01/17 09:59:57;;;;;;;19.80;14.15;;;0.00;85.90;;;;;;5043317;28;20143;-73
2024/01/17 10:02:24;;;;;;;21.17;12.98;;;-3276.70;85.80;;;;;;5056027;28;20068;-72
2024/01/17 10:04:50;;;;;;;20.90;13.98;;;-3276.70;86.10;;;;;;5038395;28;20382;-73
2024/01/17 10:07:19;;;;;;;18.67;13.15;;;0.00;86.10;;;;;;5041075;28;20033;-71
2024/01/17 10:09:45;;;;;;;21.98;13.55;;;0.00;86.10;;;;;;5035557;28;20025;-71
2024/01/17 10:12:11;;;;;;;20.23;13.88;;;0.00;86.10;;;;;;5032162;28;20041;-72
2024/01/17 10:14:37;;;;;;;22.77;14.05;;;0.00;85.90;;;;;;5032888;28;20075;-72
2024/01/17 10:17:05;;;;;;;22.08;15.35;;;0.00;86.10;;;;;;5034575;28;20021;-72
2024/01/17 10:19:30;;;;;;;26.77;13.88;;;0.00;86.10;;;;;;5031453;28;20045;-72
2024/01/17 10:21:56;;;;;;;22.40;13.32;;;0.10;86.10;;;;;;5036182;28;20039;-72
2024/01/17 10:24:22;;;;;;;19.98;12.93;;;0.10;86.00;;;;;;5040405;28;20415;-72
2024/01/17 10:26:51;;;;;;;20.92;13.38;;;0.20;86.00;;;;;;5035942;28;20064;-72
2024/01/17 10:29:17;;;;;;;23.42;13.00;;;0.20;86.00;;;;;;5032723;28;20049;-73
2024/01/17 10:31:44;;;;;;;19.88;13.38;;;0.30;86.10;;;;;;5033510;28;20033;-72
2024/01/17 10:34:10;;;;;;;21.30;14.38;;;0.40;85.90;;;;;;5037528;28;20049;-72
2024/01/17 10:36:42;;;;;;;21.60;14.95;;;0.40;85.90;;;;;;5037603;28;20131;-73
2024/01/17 10:39:11;;;;;;;25.70;14.75;;;0.40;85.70;;;;;;5034953;28;20061;-72
2024/01/17 10:41:54;;;;;;;21.45;13.77;;;0.40;85.70;;;;;;5037311;28;20453;-72
2024/01/17 10:44:21;;;;;;;21.58;13.02;;;0.30;86.20;;;;;;5031652;28;20502;-73
2024/01/17 10:46:54;;;;;;;25.58;13.45;;;0.40;86.40;;;;;;5031894;28;20029;-73
2024/01/17 10:49:21;;;;;;;23.55;16.52;;;0.40;86.50;;;;;;5028549;28;20034;-75
2024/01/17 10:51:57;;;;;;;20.23;14.73;;;0.30;86.80;;;;;;5028442;28;20041;-73
2024/01/17 10:54:29;;;;;;;20.67;13.98;;;0.30;87.10;;;;;;5030881;28;20124;-73
2024/01/17 10:57:00;;;;;;;23.70;15.52;;;0.40;87.40;;;;;;5038028;28;20079;-75
2024/01/17 10:59:26;;;;;;;19.63;13.85;;;0.40;87.50;;;;;;5030754;28;20449;-72
2024/01/17 11:01:53;;;;;;;21.70;14.93;;;0.50;87.60;;;;;;5031196;28;20424;-74
2024/01/17 11:04:36;;;;;;;22.27;15.45;;;0.50;87.60;;;;;;5037854;28;20342;-74
2024/01/17 11:07:03;;;;;;;23.80;15.05;;;0.50;87.70;;;;;;5036041;28;20108;-74
2024/01/17 11:09:29;;;;;;;21.55;14.07;;;0.60;87.80;;;;;;5032372;28;20049;-73
2024/01/17 11:11:59;;;;;;;24.85;16.08;;;0.50;87.70;;;;;;5033048;28;20029;-73
2024/01/17 11:14:30;;;;;;;24.50;14.98;;;0.50;88.10;;;;;;5031294;28;20029;-73
2024/01/17 11:16:59;;;;;;;23.85;15.52;;;0.50;88.20;;;;;;5036950;28;20021;-73
2024/01/17 11:19:26;;;;;;;25.63;16.02;;;0.60;88.30;;;;;;5029682;28;20102;-73
2024/01/17 11:21:52;;;;;;;25.65;16.02;;;0.50;88.30;;;;;;5034847;28;20087;-73
2024/01/17 11:24:43;;;;;;;23.50;15.38;;;0.50;88.30;;;;;;5036135;28;20041;-73
2024/01/17 11:27:26;;;;;;;24.45;16.17;;;0.50;88.60;;;;;;5040344;28;20819;-73
2024/01/17 11:30:32;;;;;;;25.48;16.85;;;0.40;88.90;;;;;;5040775;28;20040;-73
2024/01/17 11:33:10;;;;;;;28.10;15.52;;;0.30;89.40;;;;;;5032643;28;20049;-72
2024/01/17 11:35:49;;;;;;;26.00;16.80;;;0.20;89.70;;;;;;5042411;28;20024;-73
2024/01/17 11:38:24;;;;;;;25.35;18.33;;;0.10;90.30;;;;;;5035825;28;20036;-73
2024/01/17 11:40:53;;;;;;;;;;;0.10;90.70;;;;;;5038845;28;20135;-74
2024/01/17 11:43:19;;;;;;;27.77;17.70;;;0.00;91.10;;;;;;5034883;28;19943;-74
2024/01/17 11:45:47;;;;;;;28.92;17.85;;;0.00;91.70;;;;;;5035519;28;20052;-72
2024/01/17 11:48:27;;;;;;;27.08;17.50;;;-3276.70;92.20;;;;;;5036211;28;20068;-73
2024/01/17 11:51:20;;;;;;;28.52;18.98;;;0.00;92.50;;;;;;5033785;28;20102;-73
2024/01/17 11:53:52;;;;;;;30.40;18.50;;;-3276.70;92.90;;;;;;5047687;28;20025;-75
2024/01/17 11:56:22;;;;;;;29.73;19.30;;;0.00;93.20;;;;;;5031949;28;20585;-74
2024/01/17 11:58:51;;;;;;;35.40;19.95;;;0.00;93.40;;;;;;5032184;28;20538;-73
2024/01/17 12:01:23;;;;;;;29.02;20.48;;;0.00;93.60;;;;;;5032630;28;20053;-75
2024/01/17 12:03:52;;;;;;;28.67;19.95;;;0.20;93.70;;;;;;5037120;28;20037;-72
2024/01/17 12:06:21;;;;;;;30.65;21.15;;;0.30;93.60;;;;;;5037982;28;20358;-73
2024/01/17 12:08:49;;;;;;;33.00;20.88;;;0.10;93.20;;;;;;5036189;28;20374;-73
2024/01/17 12:11:15;;;;;;;31.35;21.67;;;0.10;93.30;;;;;;5031077;28;20086;-74
2024/01/17 12:13:42;;;;;;;32.80;21.02;;;0.10;93.40;;;;;;5031733;28;20356;-74
2024/01/17 12:16:08;;;;;;;29.70;19.40;;;0.10;93.50;;;;;;5033220;28;20017;-74
2024/01/17 12:18:35;;;;;;;34.92;20.90;;;0.00;93.70;;;;;;5036683;28;20029;-74
2024/01/17 12:21:02;;;;;;;32.13;21.13;;;0.10;93.90;;;;;;5030108;28;20035;-73
2024/01/17 12:23:30;;;;;;;28.83;19.60;;;0.10;94.00;;;;;;5038962;28;20047;-74
2024/01/17 12:25:57;;;;;;;32.60;20.70;;;0.20;93.90;;;;;;5032248;28;20021;-73